sensor_id;sensor_type;location;lat;lon;timestamp;pressure;altitude;pressure_sealevel;temperature;humidity
53671;BME280;39571;48.612;8.088;2022-10-13T00:01:35;100363.25;;;20.58;58.20
53671;BME280;39571;48.612;8.088;2022-10-13T00:04:00;100365.00;;;20.59;57.94
53671;BME280;39571;48.612;8.088;2022-10-13T00:06:25;100367.94;;;20.53;57.84
53671;BME280;39571;48.612;8.088;2022-10-13T00:08:51;100375.09;;;20.51;58.05
53671;BME280;39571;48.612;8.088;2022-10-13T00:11:18;100359.69;;;20.59;58.01
53671;BME280;39571;48.612;8.088;2022-10-13T00:13:44;100352.75;;;20.55;57.95
53671;BME280;39571;48.612;8.088;2022-10-13T00:16:12;100350.91;;;20.57;58.10
53671;BME280;39571;48.612;8.088;2022-10-13T00:18:38;100350.97;;;20.56;57.96
53671;BME280;39571;48.612;8.088;2022-10-13T00:21:12;100353.50;;;20.59;57.95
53671;BME280;39571;48.612;8.088;2022-10-13T00:23:38;100352.63;;;20.58;58.05
53671;BME280;39571;48.612;8.088;2022-10-13T00:26:06;100357.94;;;20.58;57.89
53671;BME280;39571;48.612;8.088;2022-10-13T00:28:32;100349.19;;;20.56;57.93
53671;BME280;39571;48.612;8.088;2022-10-13T00:30:58;100348.44;;;20.53;58.11
53671;BME280;39571;48.612;8.088;2022-10-13T00:33:23;100356.38;;;20.54;58.06
53671;BME280;39571;48.612;8.088;2022-10-13T00:35:49;100363.53;;;20.52;58.17
53671;BME280;39571;48.612;8.088;2022-10-13T00:38:16;100351.91;;;20.55;58.17
53671;BME280;39571;48.612;8.088;2022-10-13T00:40:53;100355.69;;;20.49;58.44
53671;BME280;39571;48.612;8.088;2022-10-13T00:43:23;100362.09;;;20.45;58.39
53671;BME280;39571;48.612;8.088;2022-10-13T00:45:50;100356.75;;;20.45;58.55
53671;BME280;39571;48.612;8.088;2022-10-13T00:48:27;100350.47;;;20.48;58.50
53671;BME280;39571;48.612;8.088;2022-10-13T00:50:55;100355.06;;;20.44;58.69
53671;BME280;39571;48.612;8.088;2022-10-13T00:53:25;100346.00;;;20.48;58.38
53671;BME280;39571;48.612;8.088;2022-10-13T00:55:53;100342.53;;;20.46;58.64
53671;BME280;39571;48.612;8.088;2022-10-13T00:58:21;100343.56;;;20.44;58.88
53671;BME280;39571;48.612;8.088;2022-10-13T01:00:50;100337.56;;;20.39;58.76
53671;BME280;39571;48.612;8.088;2022-10-13T01:03:18;100323.41;;;20.38;58.81
53671;BME280;39571;48.612;8.088;2022-10-13T01:05:45;100333.91;;;20.41;58.81
53671;BME280;39571;48.612;8.088;2022-10-13T01:08:12;100323.25;;;20.41;58.65
53671;BME280;39571;48.612;8.088;2022-10-13T01:13:55;100315.22;;;20.43;58.95
53671;BME280;39571;48.612;8.088;2022-10-13T01:28:13;100328.53;;;20.43;58.69
53671;BME280;39571;48.612;8.088;2022-10-13T01:30:47;100318.09;;;20.38;58.93
53671;BME280;39571;48.612;8.088;2022-10-13T01:33:18;100327.00;;;20.37;58.73
53671;BME280;39571;48.612;8.088;2022-10-13T01:38:44;100328.84;;;20.35;58.81
53671;BME280;39571;48.612;8.088;2022-10-13T01:41:27;100335.91;;;20.36;58.95
53671;BME280;39571;48.612;8.088;2022-10-13T01:44:00;100340.31;;;20.37;58.91
53671;BME280;39571;48.612;8.088;2022-10-13T01:46:31;100339.34;;;20.38;58.67
53671;BME280;39571;48.612;8.088;2022-10-13T01:48:59;100340.34;;;20.36;58.91
53671;BME280;39571;48.612;8.088;2022-10-13T01:51:26;100342.34;;;20.31;58.59
53671;BME280;39571;48.612;8.088;2022-10-13T01:53:53;100339.56;;;20.34;58.68
53671;BME280;39571;48.612;8.088;2022-10-13T01:56:19;100341.50;;;20.30;59.01
53671;BME280;39571;48.612;8.088;2022-10-13T01:58:44;100343.44;;;20.25;58.97
53671;BME280;39571;48.612;8.088;2022-10-13T02:01:52;100351.50;;;20.24;58.88
53671;BME280;39571;48.612;8.088;2022-10-13T02:04:28;100352.13;;;20.30;58.78
53671;BME280;39571;48.612;8.088;2022-10-13T02:07:17;100350.41;;;20.29;58.79
53671;BME280;39571;48.612;8.088;2022-10-13T02:12:24;100339.81;;;20.28;58.70
53671;BME280;39571;48.612;8.088;2022-10-13T02:14:52;100343.44;;;20.25;58.85
53671;BME280;39571;48.612;8.088;2022-10-13T02:17:19;100334.94;;;20.17;58.88
53671;BME280;39571;48.612;8.088;2022-10-13T02:19:45;100343.72;;;20.19;59.16
53671;BME280;39571;48.612;8.088;2022-10-13T02:22:12;100347.31;;;20.18;59.13
53671;BME280;39571;48.612;8.088;2022-10-13T02:24:39;100342.00;;;20.18;59.10
53671;BME280;39571;48.612;8.088;2022-10-13T02:27:05;100350.06;;;20.16;59.10
53671;BME280;39571;48.612;8.088;2022-10-13T02:29:31;100341.22;;;20.16;59.25
53671;BME280;39571;48.612;8.088;2022-10-13T02:31:56;100347.44;;;20.15;58.93
53671;BME280;39571;48.612;8.088;2022-10-13T02:34:22;100338.47;;;20.17;59.03
53671;BME280;39571;48.612;8.088;2022-10-13T02:36:47;100338.41;;;20.19;58.81
53671;BME280;39571;48.612;8.088;2022-10-13T02:39:12;100343.03;;;20.14;58.86
53671;BME280;39571;48.612;8.088;2022-10-13T02:41:38;100331.78;;;20.09;59.33
53671;BME280;39571;48.612;8.088;2022-10-13T02:44:04;100334.16;;;20.15;59.06
53671;BME280;39571;48.612;8.088;2022-10-13T02:46:29;100334.16;;;20.15;59.05
53671;BME280;39571;48.612;8.088;2022-10-13T02:48:55;100331.34;;;20.18;58.95
53671;BME280;39571;48.612;8.088;2022-10-13T02:51:20;100331.50;;;20.15;59.07
53671;BME280;39571;48.612;8.088;2022-10-13T02:53:46;100327.78;;;20.19;58.65
53671;BME280;39571;48.612;8.088;2022-10-13T02:56:11;100312.84;;;20.16;59.01
53671;BME280;39571;48.612;8.088;2022-10-13T02:58:36;100300.88;;;20.06;59.01
53671;BME280;39571;48.612;8.088;2022-10-13T03:01:11;100298.00;;;20.11;59.11
53671;BME280;39571;48.612;8.088;2022-10-13T03:03:36;100293.56;;;20.11;59.04
53671;BME280;39571;48.612;8.088;2022-10-13T03:06:02;100301.59;;;20.10;58.99
53671;BME280;39571;48.612;8.088;2022-10-13T03:08:28;100301.59;;;20.10;58.65
53671;BME280;39571;48.612;8.088;2022-10-13T03:10:53;100312.16;;;20.11;58.66
53671;BME280;39571;48.612;8.088;2022-10-13T03:13:19;100308.50;;;20.14;58.93
53671;BME280;39571;48.612;8.088;2022-10-13T03:15:45;100312.34;;;20.07;59.10
53671;BME280;39571;48.612;8.088;2022-10-13T03:18:11;100312.22;;;20.10;58.87
53671;BME280;39571;48.612;8.088;2022-10-13T03:20:37;100318.66;;;20.04;58.84
53671;BME280;39571;48.612;8.088;2022-10-13T03:23:02;100311.44;;;20.08;59.03
53671;BME280;39571;48.612;8.088;2022-10-13T03:25:27;100321.28;;;20.06;58.74
53671;BME280;39571;48.612;8.088;2022-10-13T03:27:54;100307.16;;;20.04;58.95
53671;BME280;39571;48.612;8.088;2022-10-13T03:30:19;100298.28;;;20.05;58.75
53671;BME280;39571;48.612;8.088;2022-10-13T03:32:45;100310.06;;;19.99;58.95
53671;BME280;39571;48.612;8.088;2022-10-13T03:35:10;100300.94;;;20.05;58.74
53671;BME280;39571;48.612;8.088;2022-10-13T03:37:35;100291.22;;;20.04;59.02
53671;BME280;39571;48.612;8.088;2022-10-13T03:40:01;100291.63;;;20.15;59.07
53671;BME280;39571;48.612;8.088;2022-10-13T03:42:26;100285.59;;;20.11;59.53
53671;BME280;39571;48.612;8.088;2022-10-13T03:44:52;100290.28;;;20.25;61.15
53671;BME280;39571;48.612;8.088;2022-10-13T03:47:17;100290.03;;;20.31;60.30
53671;BME280;39571;48.612;8.088;2022-10-13T03:49:42;100290.03;;;20.31;60.74
53671;BME280;39571;48.612;8.088;2022-10-13T03:52:08;100300.69;;;20.31;60.61
53671;BME280;39571;48.612;8.088;2022-10-13T03:54:33;100296.94;;;20.35;61.24
53671;BME280;39571;48.612;8.088;2022-10-13T03:56:58;100296.81;;;20.38;60.96
53671;BME280;39571;48.612;8.088;2022-10-13T03:59:24;100303.72;;;20.42;61.19
53671;BME280;39571;48.612;8.088;2022-10-13T04:01:49;100314.50;;;20.39;61.08
53671;BME280;39571;48.612;8.088;2022-10-13T04:04:14;100321.41;;;20.43;61.32
53671;BME280;39571;48.612;8.088;2022-10-13T04:06:41;100330.56;;;20.56;61.44
53671;BME280;39571;48.612;8.088;2022-10-13T04:09:06;100316.25;;;20.59;61.94
53671;BME280;39571;48.612;8.088;2022-10-13T04:11:32;100315.66;;;20.52;60.96
53671;BME280;39571;48.612;8.088;2022-10-13T04:13:57;100310.50;;;20.49;60.07
53671;BME280;39571;48.612;8.088;2022-10-13T04:16:25;100306.25;;;20.45;59.19
53671;BME280;39571;48.612;8.088;2022-10-13T04:18:54;100303.00;;;20.39;57.95
53671;BME280;39571;48.612;8.088;2022-10-13T04:21:20;100298.53;;;20.39;57.43
53671;BME280;39571;48.612;8.088;2022-10-13T04:23:46;100295.09;;;20.37;56.69
53671;BME280;39571;48.612;8.088;2022-10-13T04:26:16;100288.44;;;20.47;56.62
53671;BME280;39571;48.612;8.088;2022-10-13T04:28:42;100282.78;;;20.35;56.83
53671;BME280;39571;48.612;8.088;2022-10-13T04:31:08;100285.41;;;20.36;56.68
53671;BME280;39571;48.612;8.088;2022-10-13T04:33:33;100284.97;;;20.25;56.72
53671;BME280;39571;48.612;8.088;2022-10-13T04:36:02;100282.50;;;20.21;56.97
53671;BME280;39571;48.612;8.088;2022-10-13T04:38:28;100281.78;;;20.17;57.06
53671;BME280;39571;48.612;8.088;2022-10-13T04:40:53;100274.75;;;20.16;57.12
53671;BME280;39571;48.612;8.088;2022-10-13T04:43:18;100267.91;;;20.10;56.97
53671;BME280;39571;48.612;8.088;2022-10-13T04:45:44;100268.13;;;20.06;57.48
53671;BME280;39571;48.612;8.088;2022-10-13T04:48:09;100260.78;;;20.11;57.21
53671;BME280;39571;48.612;8.088;2022-10-13T04:50:34;100245.91;;;20.07;57.13
53671;BME280;39571;48.612;8.088;2022-10-13T04:53:00;100245.09;;;20.06;57.21
53671;BME280;39571;48.612;8.088;2022-10-13T04:55:25;100238.09;;;20.04;57.42
53671;BME280;39571;48.612;8.088;2022-10-13T04:57:51;100235.66;;;19.99;57.19
53671;BME280;39571;48.612;8.088;2022-10-13T05:00:16;100239.28;;;19.97;57.38
53671;BME280;39571;48.612;8.088;2022-10-13T05:02:42;100227.59;;;20.01;57.16
53671;BME280;39571;48.612;8.088;2022-10-13T05:05:08;100227.59;;;20.01;57.41
53671;BME280;39571;48.612;8.088;2022-10-13T05:07:34;100227.44;;;20.04;57.31
53671;BME280;39571;48.612;8.088;2022-10-13T05:09:59;100230.38;;;19.98;57.61
53671;BME280;39571;48.612;8.088;2022-10-13T05:12:25;100233.09;;;19.96;57.45
53671;BME280;39571;48.612;8.088;2022-10-13T05:14:50;100234.66;;;20.02;57.40
53671;BME280;39571;48.612;8.088;2022-10-13T05:17:15;100224.59;;;20.08;57.38
53671;BME280;39571;48.612;8.088;2022-10-13T05:19:41;100222.41;;;19.98;57.48
53671;BME280;39571;48.612;8.088;2022-10-13T05:22:06;100220.69;;;19.97;57.50
53671;BME280;39571;48.612;8.088;2022-10-13T05:24:31;100222.28;;;20.01;57.34
53671;BME280;39571;48.612;8.088;2022-10-13T05:27:12;100231.16;;;20.00;57.39
53671;BME280;39571;48.612;8.088;2022-10-13T05:29:38;100226.59;;;20.03;57.17
53671;BME280;39571;48.612;8.088;2022-10-13T05:32:05;100209.13;;;19.98;57.57
53671;BME280;39571;48.612;8.088;2022-10-13T05:34:31;100202.16;;;19.95;57.46
53671;BME280;39571;48.612;8.088;2022-10-13T05:36:57;100216.97;;;20.01;57.70
53671;BME280;39571;48.612;8.088;2022-10-13T05:39:23;100217.38;;;19.92;57.99
53671;BME280;39571;48.612;8.088;2022-10-13T05:41:48;100216.25;;;19.97;57.76
53671;BME280;39571;48.612;8.088;2022-10-13T05:44:14;100225.84;;;20.00;57.47
53671;BME280;39571;48.612;8.088;2022-10-13T05:46:41;100237.78;;;19.91;57.60
53671;BME280;39571;48.612;8.088;2022-10-13T05:49:07;100236.75;;;19.94;57.67
53671;BME280;39571;48.612;8.088;2022-10-13T05:51:35;100241.88;;;19.98;57.64
53671;BME280;39571;48.612;8.088;2022-10-13T05:54:06;100247.53;;;19.91;57.63
53671;BME280;39571;48.612;8.088;2022-10-13T05:56:41;100246.94;;;19.84;58.17
53671;BME280;39571;48.612;8.088;2022-10-13T05:59:11;100237.03;;;19.88;57.66
53671;BME280;39571;48.612;8.088;2022-10-13T06:01:39;100248.66;;;19.85;58.25
53671;BME280;39571;48.612;8.088;2022-10-13T06:04:08;100253.84;;;19.88;58.03
53671;BME280;39571;48.612;8.088;2022-10-13T06:06:36;100250.97;;;19.93;57.47
53671;BME280;39571;48.612;8.088;2022-10-13T06:09:02;100252.84;;;19.91;57.83
53671;BME280;39571;48.612;8.088;2022-10-13T06:11:27;100253.91;;;19.87;57.81
53671;BME280;39571;48.612;8.088;2022-10-13T06:13:52;100254.84;;;19.86;57.77
53671;BME280;39571;48.612;8.088;2022-10-13T06:16:18;100258.28;;;19.88;57.94
53671;BME280;39571;48.612;8.088;2022-10-13T06:18:43;100251.09;;;19.90;57.93
53671;BME280;39571;48.612;8.088;2022-10-13T06:21:08;100250.97;;;19.93;58.04
53671;BME280;39571;48.612;8.088;2022-10-13T06:23:34;100263.47;;;19.91;58.02
53671;BME280;39571;48.612;8.088;2022-10-13T06:25:59;100263.47;;;19.91;58.04
53671;BME280;39571;48.612;8.088;2022-10-13T06:28:25;100252.78;;;19.92;58.06
53671;BME280;39571;48.612;8.088;2022-10-13T06:30:51;100257.00;;;19.96;58.13
53671;BME280;39571;48.612;8.088;2022-10-13T06:33:24;100249.13;;;19.95;58.11
53671;BME280;39571;48.612;8.088;2022-10-13T06:35:50;100249.78;;;20.00;57.89
53671;BME280;39571;48.612;8.088;2022-10-13T06:38:16;100252.44;;;20.00;57.86
53671;BME280;39571;48.612;8.088;2022-10-13T06:40:42;100254.44;;;19.95;58.10
53671;BME280;39571;48.612;8.088;2022-10-13T06:43:07;100250.88;;;19.96;58.06
53671;BME280;39571;48.612;8.088;2022-10-13T06:45:33;100257.75;;;20.00;57.82
53671;BME280;39571;48.612;8.088;2022-10-13T06:47:58;100245.56;;;19.96;57.93
53671;BME280;39571;48.612;8.088;2022-10-13T06:50:24;100240.44;;;19.91;58.27
53671;BME280;39571;48.612;8.088;2022-10-13T06:52:49;100249.25;;;19.92;58.19
53671;BME280;39571;48.612;8.088;2022-10-13T06:55:14;100256.38;;;19.91;58.42
53671;BME280;39571;48.612;8.088;2022-10-13T06:57:41;100244.59;;;19.97;58.35
53671;BME280;39571;48.612;8.088;2022-10-13T07:00:07;100233.03;;;19.98;58.70
53671;BME280;39571;48.612;8.088;2022-10-13T07:02:32;100237.31;;;20.02;58.64
53671;BME280;39571;48.612;8.088;2022-10-13T07:04:58;100237.94;;;20.07;58.67
53671;BME280;39571;48.612;8.088;2022-10-13T07:07:23;100239.81;;;20.05;58.70
53671;BME280;39571;48.612;8.088;2022-10-13T07:09:49;100242.63;;;20.02;58.52
53671;BME280;39571;48.612;8.088;2022-10-13T07:12:14;100245.41;;;19.99;58.70
53671;BME280;39571;48.612;8.088;2022-10-13T07:14:40;100241.81;;;20.00;58.60
53671;BME280;39571;48.612;8.088;2022-10-13T07:17:05;100233.63;;;20.04;58.27
53671;BME280;39571;48.612;8.088;2022-10-13T07:19:31;100230.19;;;20.02;58.59
53671;BME280;39571;48.612;8.088;2022-10-13T07:21:56;100234.66;;;20.02;58.53
53671;BME280;39571;48.612;8.088;2022-10-13T07:24:22;100238.09;;;20.04;58.36
53671;BME280;39571;48.612;8.088;2022-10-13T07:26:47;100237.81;;;20.10;58.50
53671;BME280;39571;48.612;8.088;2022-10-13T07:29:12;100240.59;;;20.07;58.50
53671;BME280;39571;48.612;8.088;2022-10-13T07:31:38;100243.84;;;20.13;58.38
53671;BME280;39571;48.612;8.088;2022-10-13T07:34:03;100239.34;;;20.15;58.06
53671;BME280;39571;48.612;8.088;2022-10-13T07:36:31;100241.13;;;20.15;58.33
53671;BME280;39571;48.612;8.088;2022-10-13T07:38:56;100235.97;;;20.12;58.40
53671;BME280;39571;48.612;8.088;2022-10-13T07:41:22;100232.44;;;20.11;58.18
53671;BME280;39571;48.612;8.088;2022-10-13T07:43:47;100228.91;;;20.11;57.71
53671;BME280;39571;48.612;8.088;2022-10-13T07:46:13;100230.78;;;20.09;58.20
53671;BME280;39571;48.612;8.088;2022-10-13T07:48:38;100228.75;;;20.14;58.14
53671;BME280;39571;48.612;8.088;2022-10-13T07:51:06;100226.63;;;20.22;57.95
53671;BME280;39571;48.612;8.088;2022-10-13T07:53:31;100234.81;;;20.17;58.33
53671;BME280;39571;48.612;8.088;2022-10-13T07:56:00;100241.00;;;20.18;58.19
53671;BME280;39571;48.612;8.088;2022-10-13T07:58:25;100219.72;;;20.18;58.19
53671;BME280;39571;48.612;8.088;2022-10-13T08:00:58;100218.06;;;20.15;58.26
53671;BME280;39571;48.612;8.088;2022-10-13T08:03:23;100223.31;;;20.17;58.40
53671;BME280;39571;48.612;8.088;2022-10-13T08:05:49;100230.50;;;20.15;58.23
53671;BME280;39571;48.612;8.088;2022-10-13T08:08:14;100226.91;;;20.16;58.18
53671;BME280;39571;48.612;8.088;2022-10-13T08:10:39;100225.31;;;20.12;58.59
53671;BME280;39571;48.612;8.088;2022-10-13T08:13:05;100230.34;;;20.18;58.00
53671;BME280;39571;48.612;8.088;2022-10-13T08:15:30;100230.50;;;20.15;58.49
53671;BME280;39571;48.612;8.088;2022-10-13T08:17:55;100215.13;;;20.22;58.38
53671;BME280;39571;48.612;8.088;2022-10-13T08:20:21;100223.06;;;20.23;58.03
53671;BME280;39571;48.612;8.088;2022-10-13T08:22:46;100221.31;;;20.22;58.29
53671;BME280;39571;48.612;8.088;2022-10-13T08:25:11;100223.44;;;20.14;58.23
53671;BME280;39571;48.612;8.088;2022-10-13T08:27:37;100220.00;;;20.12;58.35
53671;BME280;39571;48.612;8.088;2022-10-13T08:30:03;100225.19;;;20.15;58.37
53671;BME280;39571;48.612;8.088;2022-10-13T08:32:29;100210.25;;;20.12;58.71
53671;BME280;39571;48.612;8.088;2022-10-13T08:34:54;100219.72;;;20.18;58.28
53671;BME280;39571;48.612;8.088;2022-10-13T08:37:19;100217.22;;;20.15;58.59
53671;BME280;39571;48.612;8.088;2022-10-13T08:39:46;100217.16;;;20.16;58.44
53671;BME280;39571;48.612;8.088;2022-10-13T08:42:14;100216.06;;;20.21;58.39
53671;BME280;39571;48.612;8.088;2022-10-13T08:44:54;100214.94;;;20.26;58.31
53671;BME280;39571;48.612;8.088;2022-10-13T08:47:43;100212.22;;;20.28;58.03
53671;BME280;39571;48.612;8.088;2022-10-13T08:50:21;100214.34;;;20.40;57.95
53671;BME280;39571;48.612;8.088;2022-10-13T08:55:46;100223.66;;;20.30;57.99
53671;BME280;39571;48.612;8.088;2022-10-13T08:58:32;100217.47;;;20.29;58.15
53671;BME280;39571;48.612;8.088;2022-10-13T09:03:50;100214.13;;;20.24;58.23
53671;BME280;39571;48.612;8.088;2022-10-13T09:06:29;100210.69;;;20.22;58.23
53671;BME280;39571;48.612;8.088;2022-10-13T09:08:59;100214.03;;;20.27;58.21
53671;BME280;39571;48.612;8.088;2022-10-13T09:11:27;100212.28;;;20.26;58.26
53671;BME280;39571;48.612;8.088;2022-10-13T09:13:54;100214.06;;;20.26;58.01
53671;BME280;39571;48.612;8.088;2022-10-13T09:16:32;100225.50;;;20.28;58.06
53671;BME280;39571;48.612;8.088;2022-10-13T09:19:25;100216.88;;;20.23;58.25
53671;BME280;39571;48.612;8.088;2022-10-13T09:21:54;100237.41;;;20.19;58.18
53671;BME280;39571;48.612;8.088;2022-10-13T09:24:21;100231.81;;;20.25;58.06
53671;BME280;39571;48.612;8.088;2022-10-13T09:26:49;100232.88;;;20.21;58.15
53671;BME280;39571;48.612;8.088;2022-10-13T09:29:24;100224.69;;;20.27;58.08
53671;BME280;39571;48.612;8.088;2022-10-13T09:31:50;100219.28;;;20.29;57.90
53671;BME280;39571;48.612;8.088;2022-10-13T09:37:01;100216.91;;;20.41;57.73
53671;BME280;39571;48.612;8.088;2022-10-13T09:39:28;100209.75;;;20.43;57.50
53671;BME280;39571;48.612;8.088;2022-10-13T09:44:45;100214.47;;;20.37;57.65
53671;BME280;39571;48.612;8.088;2022-10-13T09:47:18;100211.47;;;20.44;57.43
53671;BME280;39571;48.612;8.088;2022-10-13T09:49:58;100206.16;;;20.44;57.71
53671;BME280;39571;48.612;8.088;2022-10-13T09:52:24;100203.19;;;20.50;57.28
53671;BME280;39571;48.612;8.088;2022-10-13T09:54:52;100197.78;;;20.52;57.37
53671;BME280;39571;48.612;8.088;2022-10-13T09:57:29;100203.69;;;20.58;57.24
53671;BME280;39571;48.612;8.088;2022-10-13T10:00:20;100208.88;;;20.61;57.56
53671;BME280;39571;48.612;8.088;2022-10-13T10:03:04;100210.88;;;20.56;57.74
53671;BME280;39571;48.612;8.088;2022-10-13T10:05:51;100212.88;;;20.51;57.96
53671;BME280;39571;48.612;8.088;2022-10-13T10:08:25;100200.53;;;20.50;57.80
53671;BME280;39571;48.612;8.088;2022-10-13T10:10:52;100200.84;;;20.44;57.93
53671;BME280;39571;48.612;8.088;2022-10-13T10:13:18;100195.22;;;20.50;57.80
53671;BME280;39571;48.612;8.088;2022-10-13T10:15:53;100193.69;;;20.63;57.71
53671;BME280;39571;48.612;8.088;2022-10-13T10:24:20;100207.88;;;20.64;57.52
53671;BME280;39571;48.612;8.088;2022-10-13T10:26:56;100208.88;;;20.61;57.67
53671;BME280;39571;48.612;8.088;2022-10-13T10:34:51;100211.59;;;20.60;57.58
53671;BME280;39571;48.612;8.088;2022-10-13T10:37:18;100210.88;;;20.56;57.88
53671;BME280;39571;48.612;8.088;2022-10-13T10:40:04;100205.56;;;20.56;58.08
53671;BME280;39571;48.612;8.088;2022-10-13T10:45:24;100204.63;;;20.57;57.93
53671;BME280;39571;48.612;8.088;2022-10-13T10:47:56;100194.78;;;20.59;57.79
53671;BME280;39571;48.612;8.088;2022-10-13T10:50:23;100193.91;;;20.59;57.77
53671;BME280;39571;48.612;8.088;2022-10-13T10:53:05;100187.72;;;20.58;57.77
53671;BME280;39571;48.612;8.088;2022-10-13T10:55:31;100184.41;;;20.72;57.55
53671;BME280;39571;48.612;8.088;2022-10-13T11:00:40;100184.38;;;20.91;56.76
53671;BME280;39571;48.612;8.088;2022-10-13T11:08:46;100164.69;;;20.95;56.59
53671;BME280;39571;48.612;8.088;2022-10-13T11:11:28;100165.00;;;20.89;56.99
53671;BME280;39571;48.612;8.088;2022-10-13T11:13:56;100160.75;;;20.85;57.15
53671;BME280;39571;48.612;8.088;2022-10-13T11:16:57;100154.41;;;20.87;56.80
53671;BME280;39571;48.612;8.088;2022-10-13T11:29:58;100131.00;;;20.94;56.80
53671;BME280;39571;48.612;8.088;2022-10-13T11:35:22;100132.44;;;21.01;56.42
53671;BME280;39571;48.612;8.088;2022-10-13T11:46:25;100124.06;;;21.08;56.33
53671;BME280;39571;48.612;8.088;2022-10-13T11:51:35;100119.06;;;21.02;56.40
53671;BME280;39571;48.612;8.088;2022-10-13T11:54:22;100121.78;;;21.01;56.45
53671;BME280;39571;48.612;8.088;2022-10-13T11:56:54;100113.19;;;20.96;56.66
53671;BME280;39571;48.612;8.088;2022-10-13T11:59:34;100103.31;;;20.98;56.50
53671;BME280;39571;48.612;8.088;2022-10-13T12:02:13;100095.41;;;20.96;56.64
53671;BME280;39571;48.612;8.088;2022-10-13T12:04:41;100091.91;;;20.96;56.42
53671;BME280;39571;48.612;8.088;2022-10-13T12:07:10;100088.44;;;20.94;56.53
53671;BME280;39571;48.612;8.088;2022-10-13T12:09:50;100083.91;;;20.96;56.67
53671;BME280;39571;48.612;8.088;2022-10-13T12:12:18;100084.13;;;20.91;56.95
53671;BME280;39571;48.612;8.088;2022-10-13T12:14:47;100088.59;;;20.91;56.82
53671;BME280;39571;48.612;8.088;2022-10-13T12:19:43;100094.84;;;20.90;56.62
53671;BME280;39571;48.612;8.088;2022-10-13T12:22:12;100093.06;;;20.90;56.86
53671;BME280;39571;48.612;8.088;2022-10-13T12:24:38;100084.19;;;20.90;56.85
53671;BME280;39571;48.612;8.088;2022-10-13T12:27:16;100078.97;;;20.88;56.86
53671;BME280;39571;48.612;8.088;2022-10-13T12:29:44;100076.22;;;20.90;56.62
53671;BME280;39571;48.612;8.088;2022-10-13T12:32:22;100078.88;;;20.90;56.69
53671;BME280;39571;48.612;8.088;2022-10-13T12:34:47;100072.63;;;20.91;56.85
53671;BME280;39571;48.612;8.088;2022-10-13T12:37:28;100063.72;;;20.92;56.63
53671;BME280;39571;48.612;8.088;2022-10-13T12:39:56;100059.31;;;20.91;56.73
53671;BME280;39571;48.612;8.088;2022-10-13T12:42:28;100061.66;;;20.97;56.73
53671;BME280;39571;48.612;8.088;2022-10-13T12:44:56;100064.97;;;21.02;56.54
53671;BME280;39571;48.612;8.088;2022-10-13T12:52:46;100063.41;;;20.98;57.12
53671;BME280;39571;48.612;8.088;2022-10-13T12:55:16;100063.56;;;20.95;56.89
53671;BME280;39571;48.612;8.088;2022-10-13T12:57:44;100067.25;;;20.92;57.20
53671;BME280;39571;48.612;8.088;2022-10-13T13:00:21;100058.56;;;20.89;57.05
53671;BME280;39571;48.612;8.088;2022-10-13T13:05:35;100062.16;;;20.88;56.69
53671;BME280;39571;48.612;8.088;2022-10-13T13:08:03;100058.41;;;20.92;56.66
53671;BME280;39571;48.612;8.088;2022-10-13T13:10:29;100065.56;;;20.90;56.82
53671;BME280;39571;48.612;8.088;2022-10-13T13:12:55;100067.53;;;20.86;56.73
53671;BME280;39571;48.612;8.088;2022-10-13T13:15:37;100072.94;;;20.85;56.82
53671;BME280;39571;48.612;8.088;2022-10-13T13:20:46;100088.91;;;20.85;56.60
53671;BME280;39571;48.612;8.088;2022-10-13T13:23:12;100079.19;;;20.84;56.95
53671;BME280;39571;48.612;8.088;2022-10-13T13:25:37;100083.59;;;20.85;56.75
53671;BME280;39571;48.612;8.088;2022-10-13T13:28:05;100082.78;;;20.83;56.82
53671;BME280;39571;48.612;8.088;2022-10-13T13:30:34;100071.22;;;20.84;56.71
53671;BME280;39571;48.612;8.088;2022-10-13T13:32:59;100071.38;;;20.81;56.80
53671;BME280;39571;48.612;8.088;2022-10-13T13:35:25;100081.84;;;20.84;56.67
53671;BME280;39571;48.612;8.088;2022-10-13T13:37:51;100079.28;;;20.82;56.82
53671;BME280;39571;48.612;8.088;2022-10-13T13:40:19;100074.03;;;20.81;56.70
53671;BME280;39571;48.612;8.088;2022-10-13T13:42:45;100068.06;;;20.76;56.69
53671;BME280;39571;48.612;8.088;2022-10-13T13:45:14;100069.63;;;20.80;56.55
53671;BME280;39571;48.612;8.088;2022-10-13T13:47:40;100069.63;;;20.80;56.93
53671;BME280;39571;48.612;8.088;2022-10-13T13:52:38;100067.22;;;20.75;56.94
53671;BME280;39571;48.612;8.088;2022-10-13T13:55:04;100070.72;;;20.76;56.94
53671;BME280;39571;48.612;8.088;2022-10-13T13:57:29;100070.81;;;20.74;56.82
53671;BME280;39571;48.612;8.088;2022-10-13T13:59:55;100064.63;;;20.74;56.88
53671;BME280;39571;48.612;8.088;2022-10-13T14:02:20;100056.81;;;20.71;56.86
53671;BME280;39571;48.612;8.088;2022-10-13T14:04:46;100057.75;;;20.70;56.94
53671;BME280;39571;48.612;8.088;2022-10-13T14:07:12;100061.38;;;20.69;57.00
53671;BME280;39571;48.612;8.088;2022-10-13T14:09:38;100050.56;;;20.72;57.10
53671;BME280;39571;48.612;8.088;2022-10-13T14:12:03;100041.78;;;20.70;56.96
53671;BME280;39571;48.612;8.088;2022-10-13T14:14:30;100043.50;;;20.71;56.96
53671;BME280;39571;48.612;8.088;2022-10-13T14:16:56;100048.84;;;20.71;56.98
53671;BME280;39571;48.612;8.088;2022-10-13T14:19:21;100050.72;;;20.69;56.94
53671;BME280;39571;48.612;8.088;2022-10-13T14:21:47;100049.69;;;20.71;57.21
53671;BME280;39571;48.612;8.088;2022-10-13T14:24:12;100054.16;;;20.71;57.01
53671;BME280;39571;48.612;8.088;2022-10-13T14:26:37;100044.44;;;20.70;57.26
53671;BME280;39571;48.612;8.088;2022-10-13T14:29:03;100047.09;;;20.70;56.91
53671;BME280;39571;48.612;8.088;2022-10-13T14:31:29;100047.09;;;20.70;56.96